createdAt,value
2018-10-18T00:00:04.981Z,57.79
2018-10-18T00:02:33.389Z,58.23
2018-10-18T00:05:01.974Z,57.54
2018-10-18T00:07:30.397Z,58.05
2018-10-18T00:09:58.801Z,58.15
2018-10-18T00:12:27.258Z,57.68
2018-10-18T00:14:55.633Z,58.17
2018-10-18T00:17:29.434Z,58.26
2018-10-18T00:19:57.933Z,57.87
2018-10-18T00:22:26.317Z,58.30
2018-10-18T00:24:54.742Z,57.92
2018-10-18T00:27:23.177Z,58.18
2018-10-18T00:29:51.604Z,57.74
2018-10-18T00:32:20.002Z,57.99
2018-10-18T00:34:48.422Z,58.13
2018-10-18T00:37:16.797Z,57.49
2018-10-18T00:39:45.226Z,58.21
2018-10-18T00:42:13.699Z,58.12
2018-10-18T00:44:42.069Z,58.37
2018-10-18T00:47:10.514Z,57.81
2018-10-18T00:49:38.938Z,57.46
2018-10-18T00:52:07.365Z,58.04
2018-10-18T00:54:35.845Z,58.16
2018-10-18T00:57:04.262Z,57.38
2018-10-18T00:59:32.713Z,58.03
2018-10-18T01:02:01.154Z,58.05
2018-10-18T01:04:29.587Z,58.24
2018-10-18T01:06:57.978Z,58.32
2018-10-18T01:09:26.358Z,58.49
2018-10-18T01:11:54.851Z,58.39
2018-10-18T01:14:23.208Z,58.26
2018-10-18T01:16:56.703Z,57.97
2018-10-18T01:19:25.110Z,57.65
2018-10-18T01:21:53.553Z,58.23
2018-10-18T01:24:21.920Z,58.41
2018-10-18T01:26:50.354Z,57.74
2018-10-18T01:29:18.741Z,58.07
2018-10-18T01:31:47.166Z,58.11
2018-10-18T01:34:15.570Z,58.64
2018-10-18T01:36:44.014Z,58.55
2018-10-18T01:39:12.419Z,59.37
2018-10-18T01:41:41.404Z,59.25
2018-10-18T01:44:09.992Z,59.17
2018-10-18T01:46:38.475Z,58.32
2018-10-18T01:49:07.255Z,58.68
2018-10-18T01:51:35.813Z,58.09
2018-10-18T01:54:04.270Z,58.80
2018-10-18T01:56:32.727Z,58.32
2018-10-18T01:59:01.165Z,58.25
2018-10-18T02:01:30.270Z,58.66
2018-10-18T02:03:58.718Z,59.09
2018-10-18T02:06:27.198Z,59.49
2018-10-18T02:08:55.633Z,59.68
2018-10-18T02:11:24.030Z,60.13
2018-10-18T02:13:52.458Z,60.30
2018-10-18T02:16:20.859Z,60.76
2018-10-18T02:18:49.273Z,59.23
2018-10-18T02:21:17.673Z,59.84
2018-10-18T02:23:46.089Z,59.12
2018-10-18T02:26:14.534Z,59.20
2018-10-18T02:28:43.245Z,59.60
2018-10-18T02:31:11.815Z,58.63
2018-10-18T02:33:40.271Z,58.57
2018-10-18T02:36:08.740Z,58.69
2018-10-18T02:38:37.110Z,57.78
2018-10-18T02:41:05.582Z,58.03
2018-10-18T02:43:34.033Z,58.54
2018-10-18T02:46:02.922Z,58.34
2018-10-18T02:48:31.354Z,59.29
2018-10-18T02:50:59.766Z,59.14
2018-10-18T02:53:28.206Z,59.30
2018-10-18T02:55:56.602Z,59.25
2018-10-18T02:58:25.040Z,58.73
2018-10-18T03:00:53.445Z,58.64
2018-10-18T03:03:21.890Z,59.05
2018-10-18T03:05:50.282Z,59.24
2018-10-18T03:08:18.669Z,58.78
2018-10-18T03:10:47.090Z,58.72
2018-10-18T03:13:15.478Z,58.75
2018-10-18T03:15:43.890Z,58.53
2018-10-18T03:18:12.338Z,59.03
2018-10-18T03:20:40.730Z,58.86
2018-10-18T03:23:09.149Z,58.99
2018-10-18T03:25:37.569Z,58.92
2018-10-18T03:28:06.090Z,58.93
2018-10-18T03:30:34.553Z,58.21
2018-10-18T03:33:03.678Z,58.92
2018-10-18T03:35:32.151Z,58.85
2018-10-18T03:38:00.553Z,58.98
2018-10-18T03:40:28.985Z,58.49
2018-10-18T03:42:57.431Z,58.62
2018-10-18T03:45:26.126Z,58.96
2018-10-18T03:47:54.537Z,59.29
2018-10-18T03:50:22.948Z,58.22
2018-10-18T03:52:51.338Z,57.92
2018-10-18T03:55:19.777Z,58.34
2018-10-18T03:57:48.193Z,58.77
2018-10-18T04:00:16.882Z,58.28
2018-10-18T04:02:45.082Z,58.03
2018-10-18T04:05:13.465Z,58.47
2018-10-18T04:07:41.898Z,58.98
2018-10-18T04:10:10.293Z,58.05
2018-10-18T04:12:38.799Z,58.75
2018-10-18T04:15:07.463Z,58.17
2018-10-18T04:17:35.890Z,58.26
2018-10-18T04:20:04.427Z,58.10
2018-10-18T04:22:32.877Z,58.59
2018-10-18T04:25:01.990Z,59.33
2018-10-18T04:27:30.429Z,58.52
2018-10-18T04:29:58.835Z,58.56
2018-10-18T04:32:27.291Z,59.28
2018-10-18T04:34:55.690Z,58.61
2018-10-18T04:37:24.227Z,58.79
2018-10-18T04:39:52.543Z,58.48
2018-10-18T04:42:21.003Z,59.14
2018-10-18T04:44:49.397Z,59.16
2018-10-18T04:47:17.838Z,59.11
2018-10-18T04:49:46.246Z,59.40
2018-10-18T04:52:14.625Z,58.70
2018-10-18T04:54:43.060Z,58.85
2018-10-18T04:57:11.447Z,59.61
2018-10-18T04:59:40.273Z,59.88
2018-10-18T05:02:08.662Z,59.61
2018-10-18T05:04:37.081Z,59.52
2018-10-18T05:07:05.604Z,60.30
2018-10-18T05:09:34.341Z,59.80
2018-10-18T05:12:02.790Z,60.43
2018-10-18T05:14:31.210Z,60.57
2018-10-18T05:16:59.603Z,59.99
2018-10-18T05:19:28.031Z,59.99
2018-10-18T05:21:56.430Z,61.28
2018-10-18T05:24:24.866Z,60.67
2018-10-18T05:26:53.318Z,59.62
2018-10-18T05:29:21.745Z,59.66
2018-10-18T05:31:50.240Z,59.08
2018-10-18T05:34:18.610Z,59.53
2018-10-18T05:36:46.993Z,59.24
2018-10-18T05:39:15.443Z,58.88
2018-10-18T05:41:43.826Z,58.86
2018-10-18T05:44:12.270Z,58.71
2018-10-18T05:46:40.773Z,58.93
2018-10-18T05:49:09.247Z,58.69
2018-10-18T05:51:37.618Z,58.65
2018-10-18T05:54:06.079Z,57.98
2018-10-18T05:56:34.481Z,57.79
2018-10-18T05:59:02.929Z,58.41
2018-10-18T06:01:31.369Z,58.13
2018-10-18T06:03:59.761Z,58.22
2018-10-18T06:06:28.202Z,58.35
2018-10-18T06:08:56.593Z,58.23
2018-10-18T06:11:28.253Z,58.42
2018-10-18T06:13:56.650Z,58.02
2018-10-18T06:16:25.941Z,58.27
2018-10-18T06:18:54.444Z,57.72
2018-10-18T06:21:23.579Z,57.87
2018-10-18T06:23:52.016Z,57.46
2018-10-18T06:26:20.814Z,58.63
2018-10-18T06:28:49.794Z,57.98
2018-10-18T06:31:18.353Z,57.36
2018-10-18T06:33:46.960Z,58.16
2018-10-18T06:36:15.492Z,57.32
2018-10-18T06:38:44.034Z,57.53
2018-10-18T06:41:12.484Z,57.67
2018-10-18T06:43:41.858Z,57.11
2018-10-18T06:46:12.015Z,56.69
2018-10-18T06:48:41.085Z,56.58
2018-10-18T06:51:09.843Z,56.74
2018-10-18T06:53:38.353Z,55.69
2018-10-18T06:56:06.922Z,56.47
2018-10-18T06:58:35.505Z,56.14
2018-10-18T07:01:04.015Z,56.33
2018-10-18T07:03:32.447Z,56.00
2018-10-18T07:06:01.115Z,56.35
2018-10-18T07:08:29.641Z,56.24
2018-10-18T07:10:58.144Z,55.81
2018-10-18T07:13:26.533Z,56.58
2018-10-18T07:15:54.922Z,56.45
2018-10-18T07:18:23.358Z,56.50
2018-10-18T07:20:51.771Z,57.51
2018-10-18T07:23:20.175Z,57.61
2018-10-18T07:25:48.633Z,58.05
2018-10-18T07:28:17.074Z,57.76
2018-10-18T07:30:45.502Z,57.54
2018-10-18T07:33:13.951Z,57.29
2018-10-18T07:35:42.915Z,57.82
2018-10-18T07:38:12.903Z,57.08
2018-10-18T07:40:41.373Z,56.47
2018-10-18T07:43:09.911Z,57.25
2018-10-18T07:45:38.290Z,56.41
2018-10-18T07:48:06.814Z,56.49
2018-10-18T07:50:35.205Z,56.27
2018-10-18T07:53:03.687Z,56.35
2018-10-18T07:55:32.085Z,57.21
2018-10-18T07:58:00.496Z,56.53
2018-10-18T08:00:29.019Z,56.52
2018-10-18T08:02:57.379Z,56.77
2018-10-18T08:05:28.946Z,56.21
2018-10-18T08:07:57.422Z,55.56
2018-10-18T08:10:25.887Z,55.75
2018-10-18T08:12:54.352Z,55.59
2018-10-18T08:15:22.874Z,54.87
2018-10-18T08:17:52.174Z,55.12
2018-10-18T08:20:20.714Z,54.43
2018-10-18T08:22:50.322Z,53.98
2018-10-18T08:25:18.921Z,53.40
2018-10-18T08:27:49.366Z,53.79
2018-10-18T08:30:17.790Z,52.66
2018-10-18T08:32:46.270Z,53.39
2018-10-18T08:35:14.708Z,53.11
2018-10-18T08:37:43.284Z,53.51
2018-10-18T08:40:11.629Z,53.23
2018-10-18T08:42:40.122Z,52.47
2018-10-18T08:45:09.479Z,52.98
2018-10-18T08:47:37.932Z,52.60
2018-10-18T08:50:08.087Z,52.66
2018-10-18T08:52:36.608Z,51.71
2018-10-18T08:55:05.911Z,51.88
2018-10-18T08:57:34.339Z,51.25
2018-10-18T09:00:02.817Z,51.76
2018-10-18T09:02:32.111Z,51.24
2018-10-18T09:05:01.923Z,50.91
2018-10-18T09:07:31.369Z,50.63
2018-10-18T09:09:59.780Z,50.29
2018-10-18T09:12:28.226Z,50.44
2018-10-18T09:14:56.679Z,50.85
2018-10-18T09:17:25.106Z,51.15
2018-10-18T09:19:54.114Z,50.14
2018-10-18T09:22:22.528Z,50.60
2018-10-18T09:24:50.968Z,50.62
2018-10-18T09:27:20.037Z,50.25
2018-10-18T09:29:48.535Z,50.62
2018-10-18T09:32:17.027Z,50.21
2018-10-18T09:34:45.603Z,50.09
2018-10-18T09:37:14.257Z,50.49
2018-10-18T09:39:42.699Z,50.00
2018-10-18T09:42:11.258Z,50.04
2018-10-18T09:44:40.047Z,50.19
2018-10-18T09:47:09.248Z,49.84
2018-10-18T09:49:37.677Z,49.68
2018-10-18T09:52:06.162Z,49.48
2018-10-18T09:54:34.660Z,48.89
2018-10-18T09:57:03.343Z,48.73
2018-10-18T09:59:31.793Z,48.82
2018-10-18T10:02:05.380Z,48.96
2018-10-18T10:04:33.824Z,48.65
2018-10-18T10:07:02.967Z,49.44
2018-10-18T10:09:31.430Z,49.38
2018-10-18T10:11:59.829Z,49.41
2018-10-18T10:14:28.231Z,49.57
2018-10-18T10:16:56.703Z,49.75
2018-10-18T10:19:25.147Z,49.25
2018-10-18T10:21:53.787Z,48.58
2018-10-18T10:24:22.872Z,48.75
2018-10-18T10:26:51.335Z,48.85
2018-10-18T10:29:19.963Z,48.80
2018-10-18T10:31:48.410Z,48.79
2018-10-18T10:34:16.872Z,48.74
2018-10-18T10:36:45.346Z,48.92
2018-10-18T10:39:13.821Z,48.87
2018-10-18T10:41:42.221Z,48.62
2018-10-18T10:44:11.026Z,48.32
2018-10-18T10:46:40.678Z,48.32
2018-10-18T10:49:09.792Z,49.09
2018-10-18T10:51:38.422Z,48.97
2018-10-18T10:54:07.953Z,49.24
2018-10-18T10:56:36.399Z,49.38
2018-10-18T10:59:17.263Z,48.71
2018-10-18T11:01:45.806Z,49.06
2018-10-18T11:04:14.323Z,49.34
2018-10-18T11:06:42.873Z,49.13
2018-10-18T11:09:11.991Z,49.31
2018-10-18T11:11:40.424Z,48.85
2018-10-18T11:14:08.962Z,49.30
2018-10-18T11:16:37.446Z,49.33
2018-10-18T11:19:05.921Z,49.06
2018-10-18T11:21:34.424Z,47.78
2018-10-18T11:24:03.029Z,48.04
2018-10-18T11:26:31.468Z,48.01
2018-10-18T11:28:59.964Z,48.03
2018-10-18T11:31:28.474Z,47.54
2018-10-18T11:33:56.963Z,48.71
2018-10-18T11:36:25.573Z,48.07
2018-10-18T11:38:54.082Z,48.51
2018-10-18T11:41:22.687Z,47.64
2018-10-18T11:43:51.214Z,48.65
2018-10-18T11:46:19.729Z,48.65
2018-10-18T11:48:48.221Z,48.67
2018-10-18T11:51:16.653Z,49.18
2018-10-18T11:53:45.149Z,47.80
2018-10-18T11:56:13.698Z,48.00
2018-10-18T11:58:42.066Z,48.08
2018-10-18T12:01:10.550Z,47.57
2018-10-18T12:03:38.993Z,46.97
2018-10-18T12:06:07.416Z,47.88
2018-10-18T12:08:35.838Z,47.32
2018-10-18T12:11:04.438Z,48.11
2018-10-18T12:13:32.894Z,47.79
2018-10-18T12:16:01.965Z,48.02
2018-10-18T12:18:30.498Z,47.48
2018-10-18T12:20:58.942Z,47.50
2018-10-18T12:23:27.342Z,47.33
2018-10-18T12:25:55.797Z,47.16
2018-10-18T12:28:24.234Z,46.22
2018-10-18T12:30:52.706Z,46.59
2018-10-18T12:33:21.115Z,46.20
2018-10-18T12:35:49.610Z,46.10
2018-10-18T12:38:18.157Z,45.52
2018-10-18T12:40:46.639Z,45.40
2018-10-18T12:43:15.073Z,46.58
2018-10-18T12:45:43.586Z,45.83
2018-10-18T12:48:12.085Z,45.18
2018-10-18T12:50:40.505Z,44.00
2018-10-18T12:53:08.953Z,44.57
2018-10-18T12:55:37.408Z,44.80
2018-10-18T12:58:05.982Z,45.02
2018-10-18T13:00:34.462Z,44.53
2018-10-18T13:03:03.578Z,45.19
2018-10-18T13:05:31.986Z,45.56
2018-10-18T13:08:00.461Z,45.26
2018-10-18T13:10:28.875Z,44.34
2018-10-18T13:12:57.314Z,43.53
2018-10-18T13:15:25.745Z,44.02
2018-10-18T13:17:54.194Z,43.11
2018-10-18T13:20:22.673Z,42.83
2018-10-18T13:22:51.106Z,43.13
2018-10-18T13:25:19.536Z,42.48
2018-10-18T13:27:47.989Z,43.09
2018-10-18T13:30:16.516Z,43.17
2018-10-18T13:32:44.948Z,42.91
2018-10-18T13:35:13.402Z,42.54
2018-10-18T13:37:41.890Z,42.01
2018-10-18T13:40:10.321Z,41.94
2018-10-18T13:42:39.886Z,42.21
2018-10-18T13:45:08.574Z,42.13
2018-10-18T13:47:37.150Z,42.38
2018-10-18T13:50:06.235Z,41.87
2018-10-18T13:52:34.787Z,41.46
2018-10-18T13:55:03.650Z,41.35
2018-10-18T13:57:32.176Z,41.08
2018-10-18T14:00:22.995Z,40.75
2018-10-18T14:02:52.562Z,40.66
2018-10-18T14:05:21.397Z,40.65
2018-10-18T14:07:50.837Z,39.89
2018-10-18T14:10:19.339Z,39.88
2018-10-18T14:12:47.912Z,40.05
2018-10-18T14:15:16.897Z,39.58
2018-10-18T14:17:45.380Z,38.76
2018-10-18T14:20:15.531Z,39.54
2018-10-18T14:22:43.855Z,39.00
2018-10-18T14:25:12.389Z,37.57
2018-10-18T14:27:40.926Z,37.47
2018-10-18T14:30:10.751Z,36.33
2018-10-18T14:32:39.163Z,36.31
2018-10-18T14:35:08.723Z,35.90
2018-10-18T14:37:37.054Z,34.92
2018-10-18T14:40:06.013Z,33.16
2018-10-18T14:42:34.517Z,31.58
2018-10-18T14:45:04.368Z,31.30
2018-10-18T14:47:32.805Z,29.78
2018-10-18T14:50:02.023Z,29.93
2018-10-18T14:52:30.420Z,28.72
2018-10-18T14:54:58.850Z,28.07
2018-10-18T14:57:27.298Z,27.96
2018-10-18T14:59:55.713Z,28.36
2018-10-18T15:02:24.165Z,28.28
2018-10-18T15:04:52.658Z,29.04
2018-10-18T15:07:21.174Z,29.07
2018-10-18T15:09:49.622Z,30.41
2018-10-18T15:12:18.843Z,32.36
2018-10-18T15:14:47.314Z,34.44
2018-10-18T15:17:15.877Z,36.46
2018-10-18T15:19:44.292Z,37.89
2018-10-18T15:22:12.741Z,39.14
2018-10-18T15:24:41.165Z,39.04
2018-10-18T15:27:09.691Z,38.58
2018-10-18T15:29:38.097Z,39.75
2018-10-18T15:32:07.420Z,40.38
2018-10-18T15:34:35.755Z,40.20
2018-10-18T15:37:09.206Z,41.13
2018-10-18T15:39:37.698Z,42.09
2018-10-18T15:42:06.500Z,43.28
2018-10-18T15:44:35.191Z,43.59
2018-10-18T15:47:03.871Z,44.91
2018-10-18T15:49:32.282Z,45.56
2018-10-18T15:52:00.973Z,45.40
2018-10-18T15:54:29.516Z,46.03
2018-10-18T15:56:57.899Z,45.82
2018-10-18T15:59:26.641Z,46.51
2018-10-18T16:01:55.069Z,47.10
2018-10-18T16:04:23.540Z,47.60
2018-10-18T16:06:52.000Z,47.99
2018-10-18T16:09:20.497Z,47.66
2018-10-18T16:11:48.902Z,48.14
2018-10-18T16:14:17.440Z,48.82
2018-10-18T16:16:45.822Z,48.63
2018-10-18T16:19:14.491Z,49.52
2018-10-18T16:21:42.900Z,49.62
2018-10-18T16:24:12.034Z,49.78
2018-10-18T16:26:40.466Z,49.74
2018-10-18T16:29:09.022Z,50.71
2018-10-18T16:31:37.391Z,50.30
2018-10-18T16:34:07.641Z,50.84
2018-10-18T16:36:36.132Z,51.45
2018-10-18T16:39:07.217Z,51.34
2018-10-18T16:41:35.837Z,51.20
2018-10-18T16:44:04.336Z,51.04
2018-10-18T16:46:32.706Z,51.07
2018-10-18T16:49:01.931Z,51.86
2018-10-18T16:51:30.327Z,52.06
2018-10-18T16:53:58.897Z,51.54
2018-10-18T16:56:27.301Z,51.63
2018-10-18T16:58:56.899Z,51.83
2018-10-18T17:01:25.451Z,52.04
2018-10-18T17:03:53.938Z,52.26
2018-10-18T17:06:22.386Z,52.65
2018-10-18T17:08:50.815Z,52.60
2018-10-18T17:11:19.394Z,52.66
2018-10-18T17:13:48.459Z,52.88
2018-10-18T17:16:19.030Z,53.13
2018-10-18T17:18:47.619Z,53.13
2018-10-18T17:21:16.648Z,53.66
2018-10-18T17:23:45.013Z,53.39
2018-10-18T17:26:13.561Z,53.65
2018-10-18T17:28:41.897Z,53.38
2018-10-18T17:31:10.367Z,53.92
2018-10-18T17:33:38.787Z,53.74
2018-10-18T17:36:07.354Z,53.75
2018-10-18T17:38:35.754Z,54.11
2018-10-18T17:41:04.469Z,53.84
2018-10-18T17:43:32.986Z,53.77
2018-10-18T17:46:01.704Z,53.70
2018-10-18T17:48:30.138Z,53.80
2018-10-18T17:50:58.590Z,53.88
2018-10-18T17:53:27.801Z,53.95
2018-10-18T17:55:59.121Z,54.18
2018-10-18T17:58:27.611Z,54.08
2018-10-18T18:00:56.036Z,54.36
2018-10-18T18:03:24.790Z,54.48
2018-10-18T18:05:53.292Z,54.51
2018-10-18T18:08:21.950Z,54.21
2018-10-18T18:10:51.858Z,54.48
2018-10-18T18:13:20.345Z,54.33
2018-10-18T18:15:48.757Z,54.52
2018-10-18T18:18:17.257Z,54.80
2018-10-18T18:20:45.736Z,54.68
2018-10-18T18:23:14.161Z,54.73
2018-10-18T18:25:43.455Z,54.30
2018-10-18T18:28:11.933Z,54.34
2018-10-18T18:30:40.350Z,54.32
2018-10-18T18:33:08.824Z,54.58
2018-10-18T18:35:37.294Z,54.40
2018-10-18T18:38:05.809Z,54.81
2018-10-18T18:40:34.246Z,54.84
2018-10-18T18:43:03.416Z,55.61
2018-10-18T18:45:33.845Z,55.52
2018-10-18T18:48:02.666Z,55.08
2018-10-18T18:50:31.267Z,55.32
2018-10-18T18:52:59.732Z,55.02
2018-10-18T18:55:28.183Z,55.43
2018-10-18T18:57:56.613Z,55.15
2018-10-18T19:00:25.870Z,55.54
2018-10-18T19:02:54.304Z,55.16
2018-10-18T19:08:24.167Z,55.00
2018-10-18T19:10:52.754Z,54.96
2018-10-18T19:13:21.572Z,55.46
2018-10-18T19:15:51.773Z,55.38
2018-10-18T19:18:20.767Z,55.61
2018-10-18T19:20:49.250Z,54.93
2018-10-18T19:23:17.855Z,55.53
2018-10-18T19:25:46.306Z,55.28
2018-10-18T19:28:14.848Z,55.11
2018-10-18T19:30:43.326Z,55.49
2018-10-18T19:33:11.733Z,55.21
2018-10-18T19:35:40.178Z,55.51
2018-10-18T19:38:08.707Z,55.29
2018-10-18T19:40:37.186Z,55.49
2018-10-18T19:43:06.138Z,55.16
2018-10-18T19:45:34.635Z,55.92
2018-10-18T19:48:03.669Z,55.52
2018-10-18T19:50:32.163Z,56.04
2018-10-18T19:53:00.612Z,55.55
2018-10-18T19:55:35.571Z,55.20
2018-10-18T19:58:04.014Z,55.96
2018-10-18T20:00:32.450Z,55.64
2018-10-18T20:03:00.893Z,56.34
2018-10-18T20:05:29.394Z,55.66
2018-10-18T20:07:58.076Z,56.13
2018-10-18T20:10:26.483Z,56.22
2018-10-18T20:12:55.023Z,56.62
2018-10-18T20:15:23.405Z,56.90
2018-10-18T20:17:51.869Z,56.09
2018-10-18T20:20:20.363Z,56.93
2018-10-18T20:22:48.810Z,57.06
2018-10-18T20:25:17.402Z,56.74
2018-10-18T20:27:45.833Z,57.00
2018-10-18T20:30:15.284Z,57.30
2018-10-18T20:32:43.881Z,57.63
2018-10-18T20:35:12.413Z,57.11
2018-10-18T20:37:41.458Z,57.45
2018-10-18T20:40:12.358Z,57.69
2018-10-18T20:42:41.009Z,57.66
2018-10-18T20:45:13.729Z,58.15
2018-10-18T20:47:42.472Z,58.50
2018-10-18T20:50:10.994Z,57.84
2018-10-18T20:52:39.446Z,58.77
2018-10-18T20:55:08.411Z,58.30
2018-10-18T20:57:36.889Z,58.89
2018-10-18T21:00:05.944Z,58.44
2018-10-18T21:02:34.327Z,58.50
2018-10-18T21:05:02.962Z,58.25
2018-10-18T21:07:31.451Z,59.15
2018-10-18T21:09:59.994Z,58.32
2018-10-18T21:12:28.460Z,58.78
2018-10-18T21:14:56.908Z,58.45
2018-10-18T21:17:25.378Z,59.26
2018-10-18T21:19:53.845Z,59.47
2018-10-18T21:22:22.338Z,59.16
2018-10-18T21:24:50.795Z,59.27
2018-10-18T21:27:19.201Z,58.85
2018-10-18T21:29:47.666Z,59.08
2018-10-18T21:32:16.128Z,58.71
2018-10-18T21:34:44.594Z,58.52
2018-10-18T21:37:13.034Z,58.67
2018-10-18T21:39:41.981Z,58.22
2018-10-18T21:42:10.439Z,58.33
2018-10-18T21:44:39.114Z,58.90
2018-10-18T21:47:07.633Z,58.47
2018-10-18T21:49:36.052Z,58.73
2018-10-18T21:52:04.532Z,59.30
2018-10-18T21:54:32.921Z,59.50
2018-10-18T21:57:01.402Z,59.00
2018-10-18T21:59:29.774Z,59.49
2018-10-18T22:01:58.258Z,59.20
2018-10-18T22:04:26.670Z,58.68
2018-10-18T22:06:55.098Z,59.91
2018-10-18T22:09:23.530Z,59.08
2018-10-18T22:11:51.974Z,59.89
2018-10-18T22:14:20.430Z,59.77
2018-10-18T22:16:48.857Z,59.26
2018-10-18T22:19:17.394Z,59.47
2018-10-18T22:21:45.879Z,59.58
2018-10-18T22:24:14.293Z,59.92
2018-10-18T22:26:42.734Z,59.77
2018-10-18T22:29:11.225Z,59.54
2018-10-18T22:31:39.622Z,59.49
2018-10-18T22:34:08.063Z,59.70
2018-10-18T22:36:36.517Z,59.97
2018-10-18T22:39:08.087Z,59.67
2018-10-18T22:41:36.593Z,59.93
2018-10-18T22:44:05.768Z,59.29
2018-10-18T22:46:34.214Z,59.11
2018-10-18T22:49:02.886Z,59.95
2018-10-18T22:51:31.290Z,60.03
2018-10-18T22:53:59.714Z,60.93
2018-10-18T22:56:28.202Z,59.87
2018-10-18T22:58:56.647Z,60.44
2018-10-18T23:01:25.085Z,59.85
2018-10-18T23:03:53.538Z,59.77
2018-10-18T23:06:21.937Z,59.71
2018-10-18T23:08:50.369Z,59.49
2018-10-18T23:11:18.763Z,59.78
2018-10-18T23:13:47.234Z,59.41
2018-10-18T23:16:15.634Z,60.04
2018-10-18T23:18:44.097Z,60.07
2018-10-18T23:21:12.545Z,60.84
2018-10-18T23:23:40.996Z,59.86
2018-10-18T23:26:09.413Z,59.53
2018-10-18T23:28:37.845Z,59.84
2018-10-18T23:31:06.265Z,60.38
2018-10-18T23:33:34.709Z,60.33
2018-10-18T23:36:03.623Z,60.35
2018-10-18T23:38:32.058Z,60.37
2018-10-18T23:41:00.518Z,60.80
2018-10-18T23:43:28.941Z,60.88
2018-10-18T23:46:04.064Z,60.49
2018-10-18T23:48:32.524Z,60.12
2018-10-18T23:51:01.050Z,60.58
2018-10-18T23:53:29.426Z,60.18
2018-10-18T23:55:57.866Z,60.73
2018-10-18T23:58:26.314Z,60.29
